Känerkinden
Datum - Zeit
TemperaturTaupunktFeuchteSolar Wind aus Richtung WindböenLuftdruck (QFF)RegenRegenstärkeTrend
31.08.2026 - 00.00Uhr19.0 °C14.7 °C76 %0.0 W/m²1.9 km/hOsten3.2 km/h1012.2 hPa0.0 mm0.0 mm/hwechselhaft
31.08.2026 - 00.05Uhr19.1 °C14.8 °C76 %0.0 W/m²0.0 km/hOsten0.0 km/h1012.2 hPa0.0 mm0.0 mm/hwechselhaft
31.08.2026 - 00.10Uhr19.1 °C14.8 °C76 %0.0 W/m²2.2 km/hOsten6.5 km/h1012.4 hPa0.0 mm0.0 mm/hwechselhaft
31.08.2026 - 00.15Uhr19.1 °C14.9 °C77 %0.0 W/m²5.9 km/hWesten11.2 km/h1012.5 hPa0.0 mm0.0 mm/hwechselhaft
31.08.2026 - 00.20Uhr18.9 °C15.0 °C78 %0.0 W/m²15.1 km/hWesten24.1 km/h1013.0 hPa0.0 mm0.0 mm/hwechselhaft
31.08.2026 - 00.25Uhr18.9 °C14.7 °C76 %0.0 W/m²16.2 km/hWesten25.9 km/h1013.3 hPa0.0 mm0.0 mm/hwechselhaft
31.08.2026 - 00.30Uhr19.1 °C14.8 °C76 %0.0 W/m²8.5 km/hWest-SW13.0 km/h1013.3 hPa0.0 mm0.0 mm/hwechselhaft
31.08.2026 - 00.35Uhr19.2 °C14.9 °C76 %0.0 W/m²12.5 km/hWest-SW16.2 km/h1013.5 hPa0.0 mm0.0 mm/hwechselhaft
31.08.2026 - 00.40Uhr19.2 °C14.9 °C76 %0.0 W/m²13.6 km/hWest-SW17.6 km/h1013.6 hPa0.0 mm0.0 mm/hwechselhaft
31.08.2026 - 00.45Uhr19.2 °C14.9 °C76 %0.0 W/m²12.3 km/hWesten16.2 km/h1013.9 hPa0.0 mm0.0 mm/hwechselhaft
31.08.2026 - 00.50Uhr19.1 °C15.0 °C77 %0.0 W/m²13.5 km/hWest-NW17.6 km/h1013.8 hPa0.0 mm0.0 mm/hwechselhaft
31.08.2026 - 00.55Uhr19.0 °C15.1 °C78 %0.0 W/m²10.3 km/hNordwesten14.4 km/h1013.4 hPa0.0 mm0.0 mm/hwechselhaft
31.08.2026 - 01.00Uhr18.8 °C15.0 °C78 %0.0 W/m²5.5 km/hNordwesten11.2 km/h1013.4 hPa0.0 mm0.0 mm/hwechselhaft
31.08.2026 - 01.05Uhr18.7 °C15.2 °C80 %0.0 W/m²11.9 km/hWesten16.2 km/h1014.1 hPa0.3 mm0.0 mm/hwechselhaft
31.08.2026 - 01.10Uhr18.3 °C15.1 °C82 %0.0 W/m²12.3 km/hWest-NW17.6 km/h1014.5 hPa0.2 mm2.8 mm/hwechselhaft
31.08.2026 - 01.15Uhr18.1 °C15.2 °C83 %0.0 W/m²22.0 km/hWest-NW37.1 km/h1014.9 hPa0.5 mm6.9 mm/hwechselhaft
31.08.2026 - 01.20Uhr18.0 °C15.2 °C84 %0.0 W/m²17.2 km/hWesten30.6 km/h1014.9 hPa0.6 mm7.4 mm/hwechselhaft
31.08.2026 - 01.25Uhr17.8 °C15.2 °C85 %0.0 W/m²12.2 km/hWesten20.9 km/h1015.0 hPa0.2 mm7.4 mm/hwechselhaft
31.08.2026 - 01.30Uhr17.5 °C15.1 °C86 %0.0 W/m²6.6 km/hWesten11.2 km/h1014.9 hPa1.0 mm15.2 mm/hwechselhaft
31.08.2026 - 01.35Uhr17.3 °C15.1 °C87 %0.0 W/m²0.7 km/hWesten3.2 km/h1014.5 hPa0.3 mm9.1 mm/hwechselhaft
31.08.2026 - 01.40Uhr17.2 °C15.2 °C88 %0.0 W/m²3.0 km/hWesten6.5 km/h1014.3 hPa0.0 mm4.3 mm/hwechselhaft
31.08.2026 - 01.45Uhr17.2 °C15.3 °C89 %0.0 W/m²7.9 km/hOst-SO11.2 km/h1013.9 hPa0.2 mm1.8 mm/hwechselhaft
31.08.2026 - 01.50Uhr17.2 °C15.4 °C89 %0.0 W/m²6.2 km/hSüdosten13.0 km/h1014.0 hPa0.0 mm1.5 mm/hwechselhaft
31.08.2026 - 01.55Uhr17.1 °C15.3 °C89 %0.0 W/m²5.2 km/hSüd-SO9.7 km/h1014.0 hPa0.0 mm1.5 mm/hwechselhaft
31.08.2026 - 02.00Uhr17.2 °C15.4 °C89 %0.0 W/m²6.1 km/hSüd-SO13.0 km/h1014.3 hPa0.0 mm1.3 mm/hwechselhaft
31.08.2026 - 02.05Uhr17.3 °C15.5 °C89 %0.0 W/m²6.5 km/hSüd-SO14.4 km/h1014.5 hPa0.0 mm0.0 mm/hwechselhaft
31.08.2026 - 02.10Uhr17.4 °C15.5 °C88 %0.0 W/m²5.0 km/hWesten7.9 km/h1014.7 hPa0.0 mm0.0 mm/hwechselhaft
31.08.2026 - 02.15Uhr17.4 °C15.5 °C89 %0.0 W/m²3.8 km/hWest-NW7.9 km/h1014.8 hPa0.0 mm0.0 mm/hwechselhaft
31.08.2026 - 02.20Uhr17.2 °C15.4 °C89 %0.0 W/m²1.5 km/hWest-NW4.7 km/h1014.8 hPa0.0 mm0.0 mm/hwechselhaft
31.08.2026 - 02.25Uhr17.1 °C15.3 °C89 %0.0 W/m²3.5 km/hWest-NW4.7 km/h1014.9 hPa0.0 mm0.0 mm/hwechselhaft
31.08.2026 - 02.30Uhr17.1 °C15.4 °C90 %0.0 W/m²3.7 km/hWest-SW4.7 km/h1014.9 hPa0.0 mm0.0 mm/hwechselhaft
31.08.2026 - 02.35Uhr17.0 °C15.3 °C90 %0.0 W/m²3.4 km/hWest-NW4.7 km/h1014.8 hPa0.0 mm0.0 mm/hwechselhaft
31.08.2026 - 02.40Uhr16.9 °C15.2 °C90 %0.0 W/m²2.2 km/hWest-NW3.2 km/h1014.8 hPa0.0 mm0.0 mm/hwechselhaft
31.08.2026 - 02.45Uhr16.9 °C15.2 °C90 %0.0 W/m²3.2 km/hWest-NW4.7 km/h1014.8 hPa0.0 mm0.0 mm/hwechselhaft
31.08.2026 - 02.50Uhr16.8 °C15.2 °C91 %0.0 W/m²3.7 km/hSüdwesten4.7 km/h1014.8 hPa0.0 mm0.0 mm/hwechselhaft
31.08.2026 - 02.55Uhr16.7 °C15.2 °C91 %0.0 W/m²3.7 km/hWest-SW4.7 km/h1014.8 hPa0.0 mm0.0 mm/hwechselhaft
31.08.2026 - 03.00Uhr16.6 °C15.1 °C91 %0.0 W/m²4.8 km/hWest-SW6.5 km/h1014.9 hPa0.0 mm0.0 mm/hwechselhaft
31.08.2026 - 03.05Uhr16.6 °C15.1 °C91 %0.0 W/m²4.3 km/hWesten6.5 km/h1015.0 hPa0.0 mm0.0 mm/hwechselhaft
31.08.2026 - 03.10Uhr16.5 °C15.0 °C91 %0.0 W/m²4.2 km/hWesten6.5 km/h1014.9 hPa0.0 mm0.0 mm/hwechselhaft
31.08.2026 - 03.15Uhr16.4 °C15.1 °C92 %0.0 W/m²2.6 km/hWest-NW4.7 km/h1014.9 hPa0.0 mm0.0 mm/hwechselhaft
31.08.2026 - 03.20Uhr16.4 °C15.1 °C92 %0.0 W/m²2.3 km/hWest-NW3.2 km/h1014.8 hPa0.0 mm0.0 mm/hwechselhaft
31.08.2026 - 03.25Uhr16.3 °C15.0 °C92 %0.0 W/m²1.5 km/hWest-NW4.7 km/h1014.7 hPa0.0 mm0.0 mm/hwechselhaft
31.08.2026 - 03.30Uhr16.2 °C14.9 °C92 %0.0 W/m²4.9 km/hSüd-SO7.9 km/h1014.7 hPa0.0 mm0.0 mm/hwechselhaft
31.08.2026 - 03.35Uhr16.2 °C14.9 °C92 %0.0 W/m²5.3 km/hSüdosten7.9 km/h1014.8 hPa0.0 mm0.0 mm/hwechselhaft
31.08.2026 - 03.40Uhr16.1 °C14.8 °C92 %0.0 W/m²3.6 km/hSüdosten7.9 km/h1014.9 hPa0.0 mm0.0 mm/hwechselhaft
31.08.2026 - 03.45Uhr16.1 °C14.8 °C92 %0.0 W/m²2.2 km/hSüdosten3.2 km/h1014.9 hPa0.0 mm0.0 mm/hwechselhaft
31.08.2026 - 03.50Uhr16.2 °C14.8 °C92 %0.0 W/m²2.4 km/hSüdosten6.5 km/h1014.9 hPa0.0 mm0.0 mm/hwechselhaft
31.08.2026 - 03.55Uhr16.2 °C14.7 °C91 %0.0 W/m²1.0 km/hSüdosten3.2 km/h1014.9 hPa0.0 mm0.0 mm/hwechselhaft
31.08.2026 - 04.00Uhr16.3 °C14.8 °C91 %0.0 W/m²1.1 km/hSüdosten3.2 km/h1015.0 hPa0.0 mm0.0 mm/hwechselhaft
31.08.2026 - 04.05Uhr16.3 °C14.7 °C90 %0.0 W/m²0.7 km/hSüdosten3.2 km/h1015.0 hPa0.0 mm0.0 mm/hwechselhaft
31.08.2026 - 04.10Uhr16.3 °C14.7 °C90 %0.0 W/m²0.0 km/hSüdosten0.0 km/h1015.0 hPa0.0 mm0.0 mm/hwechselhaft
31.08.2026 - 04.15Uhr16.4 °C14.7 °C90 %0.0 W/m²0.6 km/hSüdosten1.4 km/h1015.1 hPa0.0 mm0.0 mm/hwechselhaft
31.08.2026 - 04.20Uhr16.5 °C14.7 °C89 %0.0 W/m²0.0 km/hSüdosten0.0 km/h1015.1 hPa0.0 mm0.0 mm/hwechselhaft
31.08.2026 - 04.25Uhr16.6 °C14.8 °C89 %0.0 W/m²0.4 km/hSüdosten1.4 km/h1015.1 hPa0.0 mm0.0 mm/hwechselhaft
31.08.2026 - 04.30Uhr16.6 °C14.8 °C89 %0.0 W/m²0.3 km/hSüdosten1.4 km/h1015.1 hPa0.0 mm0.0 mm/hwechselhaft
31.08.2026 - 04.35Uhr16.6 °C14.8 °C89 %0.0 W/m²1.2 km/hSüdosten3.2 km/h1015.1 hPa0.0 mm0.0 mm/hwechselhaft
31.08.2026 - 04.40Uhr16.6 °C14.8 °C89 %0.0 W/m²0.0 km/hSüdosten0.0 km/h1015.1 hPa0.0 mm0.0 mm/hwechselhaft
31.08.2026 - 04.45Uhr16.4 °C14.6 °C89 %0.0 W/m²0.0 km/hSüdosten0.0 km/h1015.2 hPa0.0 mm0.0 mm/hwechselhaft
31.08.2026 - 04.50Uhr16.4 °C14.8 °C90 %0.0 W/m²0.0 km/hSüdosten0.0 km/h1015.2 hPa0.0 mm0.0 mm/hwechselhaft
31.08.2026 - 04.55Uhr16.4 °C14.7 °C89 %0.0 W/m²0.0 km/hSüdosten0.0 km/h1015.1 hPa0.0 mm0.0 mm/hwechselhaft
31.08.2026 - 05.00Uhr16.6 °C14.7 °C89 %0.0 W/m²0.0 km/hSüdosten0.0 km/h1015.2 hPa0.0 mm0.0 mm/hwechselhaft
31.08.2026 - 05.05Uhr16.5 °C14.5 °C88 %0.0 W/m²0.0 km/hSüdosten0.0 km/h1015.3 hPa0.0 mm0.0 mm/hwechselhaft
31.08.2026 - 05.10Uhr16.3 °C14.5 °C89 %0.0 W/m²0.0 km/hSüdosten0.0 km/h1015.3 hPa0.0 mm0.0 mm/hwechselhaft
31.08.2026 - 05.15Uhr16.2 °C14.5 °C89 %0.0 W/m²0.0 km/hSüdosten0.0 km/h1015.3 hPa0.0 mm0.0 mm/hwechselhaft
31.08.2026 - 05.20Uhr16.1 °C14.5 °C90 %0.0 W/m²0.0 km/hSüdosten0.0 km/h1015.4 hPa0.0 mm0.0 mm/hwechselhaft
31.08.2026 - 05.25Uhr16.1 °C14.5 °C90 %0.0 W/m²0.0 km/hSüdosten0.0 km/h1015.4 hPa0.0 mm0.0 mm/hwechselhaft
31.08.2026 - 05.30Uhr16.1 °C14.5 °C90 %0.0 W/m²0.0 km/hSüdosten0.0 km/h1015.4 hPa0.0 mm0.0 mm/hwechselhaft
31.08.2026 - 05.35Uhr16.1 °C14.6 °C91 %0.0 W/m²5.0 km/hWest-NW7.9 km/h1015.3 hPa0.0 mm0.0 mm/hwechselhaft
31.08.2026 - 05.40Uhr16.0 °C14.5 °C91 %0.0 W/m²4.1 km/hWesten6.5 km/h1015.3 hPa0.0 mm0.0 mm/hwechselhaft
31.08.2026 - 05.45Uhr15.9 °C14.4 °C91 %0.0 W/m²3.6 km/hSüdwesten6.5 km/h1015.2 hPa0.0 mm0.0 mm/hwechselhaft
31.08.2026 - 05.50Uhr15.8 °C14.2 °C91 %0.0 W/m²5.7 km/hSüd-SW9.7 km/h1015.3 hPa0.0 mm0.0 mm/hwechselhaft
31.08.2026 - 05.55Uhr15.8 °C14.3 °C91 %0.0 W/m²5.9 km/hSüdwesten9.7 km/h1015.3 hPa0.0 mm0.0 mm/hwechselhaft
31.08.2026 - 06.00Uhr16.0 °C14.4 °C90 %0.0 W/m²5.7 km/hWesten7.9 km/h1015.4 hPa0.0 mm0.0 mm/hwechselhaft
31.08.2026 - 06.05Uhr16.0 °C14.4 °C90 %0.0 W/m²4.8 km/hWesten7.9 km/h1015.4 hPa0.0 mm0.0 mm/hwechselhaft
31.08.2026 - 06.10Uhr15.9 °C14.3 °C90 %0.0 W/m²1.7 km/hWest-SW6.5 km/h1015.5 hPa0.0 mm0.0 mm/hwechselhaft
31.08.2026 - 06.15Uhr15.7 °C14.1 °C90 %0.0 W/m²0.0 km/hWest-SW0.0 km/h1015.5 hPa0.0 mm0.0 mm/hwechselhaft
31.08.2026 - 06.20Uhr15.6 °C14.0 °C90 %0.0 W/m²1.7 km/hSüd-SW4.7 km/h1015.5 hPa0.0 mm0.0 mm/hwechselhaft
31.08.2026 - 06.25Uhr15.6 °C14.0 °C90 %0.0 W/m²3.4 km/hSüd-SW9.7 km/h1015.5 hPa0.0 mm0.0 mm/hwechselhaft
31.08.2026 - 06.30Uhr15.7 °C14.0 °C90 %0.0 W/m²3.7 km/hSüden6.5 km/h1015.6 hPa0.0 mm0.0 mm/hwechselhaft
31.08.2026 - 06.35Uhr15.7 °C13.9 °C89 %0.0 W/m²4.0 km/hSüd-SW6.5 km/h1015.7 hPa0.0 mm0.0 mm/hwechselhaft
31.08.2026 - 06.40Uhr15.8 °C13.8 °C88 %0.0 W/m²6.3 km/hSüd-SW9.7 km/h1015.7 hPa0.0 mm0.0 mm/hwechselhaft
31.08.2026 - 06.45Uhr16.0 °C13.8 °C87 %5.0 W/m²6.6 km/hWest-SW11.2 km/h1015.7 hPa0.0 mm0.0 mm/hwechselhaft
31.08.2026 - 06.50Uhr16.2 °C13.9 °C86 %7.0 W/m²8.2 km/hWesten13.0 km/h1015.7 hPa0.0 mm0.0 mm/hwechselhaft
31.08.2026 - 06.55Uhr16.2 °C13.7 °C85 %9.0 W/m²9.5 km/hWesten14.4 km/h1015.8 hPa0.0 mm0.0 mm/hwechselhaft
31.08.2026 - 07.00Uhr16.2 °C13.5 °C84 %12.0 W/m²8.3 km/hWesten11.2 km/h1015.8 hPa0.0 mm0.0 mm/hwechselhaft
31.08.2026 - 07.05Uhr16.1 °C13.5 °C84 %12.0 W/m²8.4 km/hWest-NW13.0 km/h1015.8 hPa0.0 mm0.0 mm/hwechselhaft
31.08.2026 - 07.10Uhr15.9 °C13.5 °C86 %14.0 W/m²6.9 km/hWesten9.7 km/h1015.8 hPa0.0 mm0.0 mm/hwechselhaft
31.08.2026 - 07.15Uhr15.8 °C13.4 °C85 %16.0 W/m²11.9 km/hWesten17.6 km/h1015.8 hPa0.0 mm0.0 mm/hwechselhaft
31.08.2026 - 07.20Uhr15.8 °C13.3 °C85 %19.0 W/m²11.7 km/hWesten20.9 km/h1015.8 hPa0.0 mm0.0 mm/hwechselhaft
31.08.2026 - 07.25Uhr15.7 °C13.1 °C84 %39.0 W/m²10.4 km/hWesten17.6 km/h1015.9 hPa0.0 mm0.0 mm/hwechselhaft
31.08.2026 - 07.30Uhr15.7 °C13.3 °C85 %44.0 W/m²6.5 km/hWesten9.7 km/h1016.0 hPa0.0 mm0.0 mm/hwechselhaft
31.08.2026 - 07.35Uhr15.6 °C13.3 °C86 %37.0 W/m²7.7 km/hWesten9.7 km/h1016.1 hPa0.0 mm0.0 mm/hwechselhaft
31.08.2026 - 07.40Uhr15.6 °C13.3 °C86 %40.0 W/m²6.5 km/hWesten9.7 km/h1016.1 hPa0.0 mm0.0 mm/hwechselhaft
31.08.2026 - 07.45Uhr15.5 °C13.2 °C86 %30.0 W/m²6.0 km/hWesten9.7 km/h1016.2 hPa0.0 mm0.0 mm/hwechselhaft
31.08.2026 - 07.50Uhr15.4 °C13.2 °C87 %32.0 W/m²5.3 km/hWest-NW6.5 km/h1016.1 hPa0.0 mm0.0 mm/hwechselhaft
31.08.2026 - 07.55Uhr15.3 °C13.1 °C87 %77.0 W/m²5.4 km/hWesten9.7 km/h1016.1 hPa0.0 mm0.0 mm/hwechselhaft
31.08.2026 - 08.00Uhr15.3 °C13.1 °C87 %156.0 W/m²4.4 km/hWest-SW6.5 km/h1016.2 hPa0.0 mm0.0 mm/hwechselhaft
31.08.2026 - 08.05Uhr15.4 °C13.2 °C87 %49.0 W/m²3.5 km/hWesten6.5 km/h1016.2 hPa0.0 mm0.0 mm/hwechselhaft
31.08.2026 - 08.10Uhr15.4 °C13.2 °C87 %178.0 W/m²6.0 km/hWesten9.7 km/h1016.2 hPa0.0 mm0.0 mm/hwechselhaft
31.08.2026 - 08.15Uhr15.7 °C13.4 °C86 %236.0 W/m²8.6 km/hWesten13.0 km/h1016.3 hPa0.0 mm0.0 mm/hwechselhaft
31.08.2026 - 08.20Uhr15.9 °C13.6 °C86 %290.0 W/m²8.2 km/hWesten11.2 km/h1016.3 hPa0.0 mm0.0 mm/hwechselhaft
31.08.2026 - 08.25Uhr16.1 °C13.7 °C86 %316.0 W/m²9.4 km/hWesten13.0 km/h1016.4 hPa0.0 mm0.0 mm/hwechselhaft
31.08.2026 - 08.30Uhr16.3 °C13.9 °C85 %345.0 W/m²9.0 km/hWesten13.0 km/h1016.3 hPa0.0 mm0.0 mm/hwechselhaft
31.08.2026 - 08.35Uhr16.4 °C13.8 °C84 %369.0 W/m²9.8 km/hWesten14.4 km/h1016.3 hPa0.0 mm0.0 mm/hwechselhaft
31.08.2026 - 08.40Uhr16.6 °C13.9 °C84 %380.0 W/m²11.5 km/hWesten16.2 km/h1016.3 hPa0.0 mm0.0 mm/hwechselhaft
31.08.2026 - 08.45Uhr16.7 °C14.0 °C84 %381.0 W/m²11.6 km/hWesten14.4 km/h1016.3 hPa0.0 mm0.0 mm/hwechselhaft
31.08.2026 - 08.50Uhr16.8 °C13.8 °C83 %381.0 W/m²12.7 km/hWesten19.4 km/h1016.3 hPa0.0 mm0.0 mm/hwechselhaft
31.08.2026 - 08.55Uhr16.8 °C13.7 °C82 %406.0 W/m²11.6 km/hWesten17.6 km/h1016.3 hPa0.0 mm0.0 mm/hwechselhaft
31.08.2026 - 09.00Uhr16.9 °C13.7 °C82 %417.0 W/m²11.8 km/hWesten17.6 km/h1016.3 hPa0.0 mm0.0 mm/hwechselhaft
31.08.2026 - 09.05Uhr16.8 °C13.5 °C81 %355.0 W/m²12.6 km/hWesten17.6 km/h1016.4 hPa0.0 mm0.0 mm/hsonnig
31.08.2026 - 09.10Uhr16.8 °C13.5 °C81 %390.0 W/m²9.6 km/hWesten13.0 km/h1016.5 hPa0.0 mm0.0 mm/hsonnig
31.08.2026 - 09.15Uhr16.8 °C13.4 °C81 %431.0 W/m²10.6 km/hWesten16.2 km/h1016.5 hPa0.0 mm0.0 mm/hsonnig
31.08.2026 - 09.20Uhr17.0 °C13.6 °C80 %401.0 W/m²11.8 km/hWesten17.6 km/h1016.5 hPa0.0 mm0.0 mm/hsonnig
31.08.2026 - 09.25Uhr17.2 °C13.6 °C80 %415.0 W/m²14.0 km/hWesten19.4 km/h1016.5 hPa0.0 mm0.0 mm/hsonnig
31.08.2026 - 09.30Uhr17.3 °C13.6 °C79 %425.0 W/m²14.9 km/hWesten22.7 km/h1016.5 hPa0.0 mm0.0 mm/hsonnig
31.08.2026 - 09.35Uhr17.5 °C13.8 °C79 %436.0 W/m²13.0 km/hWesten22.7 km/h1016.5 hPa0.0 mm0.0 mm/hsonnig
31.08.2026 - 09.40Uhr17.6 °C13.7 °C78 %439.0 W/m²14.2 km/hWesten19.4 km/h1016.5 hPa0.0 mm0.0 mm/hsonnig
31.08.2026 - 09.45Uhr17.7 °C13.4 °C76 %443.0 W/m²18.1 km/hWesten22.7 km/h1016.5 hPa0.0 mm0.0 mm/hsonnig
31.08.2026 - 09.50Uhr17.7 °C13.5 °C76 %441.0 W/m²15.5 km/hWest-NW20.9 km/h1016.6 hPa0.0 mm0.0 mm/hsonnig
31.08.2026 - 09.55Uhr17.8 °C13.6 °C76 %434.0 W/m²16.6 km/hWesten22.7 km/h1016.6 hPa0.0 mm0.0 mm/hsonnig
31.08.2026 - 10.00Uhr17.9 °C13.4 °C75 %420.0 W/m²17.7 km/hWesten24.1 km/h1016.5 hPa0.0 mm0.0 mm/hsonnig
31.08.2026 - 10.05Uhr18.0 °C13.6 °C75 %413.0 W/m²15.2 km/hWesten20.9 km/h1016.6 hPa0.0 mm0.0 mm/hsonnig
31.08.2026 - 10.10Uhr18.2 °C13.7 °C75 %406.0 W/m²14.4 km/hWesten19.4 km/h1016.7 hPa0.0 mm0.0 mm/hsonnig
31.08.2026 - 10.15Uhr18.4 °C13.7 °C74 %399.0 W/m²15.0 km/hWesten24.1 km/h1016.7 hPa0.0 mm0.0 mm/hsonnig
31.08.2026 - 10.20Uhr18.5 °C13.3 °C72 %448.0 W/m²16.8 km/hWesten24.1 km/h1016.7 hPa0.0 mm0.0 mm/hsonnig
31.08.2026 - 10.25Uhr18.7 °C13.4 °C72 %508.0 W/m²17.1 km/hWesten25.9 km/h1016.8 hPa0.0 mm0.0 mm/hsonnig
31.08.2026 - 10.30Uhr18.8 °C13.4 °C71 %540.0 W/m²18.5 km/hWesten25.9 km/h1016.8 hPa0.0 mm0.0 mm/hsonnig
31.08.2026 - 10.35Uhr18.9 °C12.9 °C68 %580.0 W/m²19.9 km/hWesten27.4 km/h1016.8 hPa0.0 mm0.0 mm/hsonnig
31.08.2026 - 10.40Uhr18.9 °C12.7 °C67 %599.0 W/m²21.2 km/hWesten30.6 km/h1016.8 hPa0.0 mm0.0 mm/hsonnig
31.08.2026 - 10.45Uhr19.1 °C13.0 °C68 %615.0 W/m²16.2 km/hWesten22.7 km/h1016.8 hPa0.0 mm0.0 mm/hsonnig
31.08.2026 - 10.50Uhr19.2 °C12.9 °C66 %687.0 W/m²23.4 km/hWesten30.6 km/h1016.8 hPa0.0 mm0.0 mm/hsonnig
31.08.2026 - 10.55Uhr19.1 °C12.4 °C65 %687.0 W/m²21.2 km/hWesten32.0 km/h1016.9 hPa0.0 mm0.0 mm/hsonnig
31.08.2026 - 11.00Uhr19.1 °C12.0 °C64 %628.0 W/m²20.1 km/hWesten27.4 km/h1016.9 hPa0.0 mm0.0 mm/hsonnig
31.08.2026 - 11.05Uhr19.3 °C12.6 °C65 %638.0 W/m²16.4 km/hWest-NW27.4 km/h1016.9 hPa0.0 mm0.0 mm/hsonnig
31.08.2026 - 11.10Uhr19.6 °C12.5 °C63 %647.0 W/m²18.2 km/hWesten24.1 km/h1016.9 hPa0.0 mm0.0 mm/hsonnig
31.08.2026 - 11.15Uhr19.6 °C12.5 °C63 %657.0 W/m²18.1 km/hWesten27.4 km/h1016.9 hPa0.0 mm0.0 mm/hsonnig
31.08.2026 - 11.20Uhr19.9 °C13.2 °C65 %666.0 W/m²17.8 km/hWest-NW24.1 km/h1016.9 hPa0.0 mm0.0 mm/hsonnig
31.08.2026 - 11.25Uhr20.0 °C12.9 °C64 %677.0 W/m²16.8 km/hWest-NW33.8 km/h1017.0 hPa0.0 mm0.0 mm/hsonnig
31.08.2026 - 11.30Uhr19.9 °C13.0 °C65 %696.0 W/m²14.4 km/hWesten20.9 km/h1017.1 hPa0.0 mm0.0 mm/hsonnig
31.08.2026 - 11.35Uhr20.0 °C12.8 °C63 %694.0 W/m²13.9 km/hWest-NW19.4 km/h1017.0 hPa0.0 mm0.0 mm/hsonnig
31.08.2026 - 11.40Uhr20.2 °C13.0 °C63 %696.0 W/m²17.3 km/hWest-NW28.8 km/h1016.9 hPa0.0 mm0.0 mm/hsonnig
31.08.2026 - 11.45Uhr20.3 °C12.6 °C61 %705.0 W/m²16.0 km/hWesten22.7 km/h1017.0 hPa0.0 mm0.0 mm/hsonnig
31.08.2026 - 11.50Uhr20.4 °C12.7 °C62 %717.0 W/m²12.9 km/hWest-NW22.7 km/h1016.9 hPa0.0 mm0.0 mm/hsonnig
31.08.2026 - 11.55Uhr20.4 °C12.4 °C60 %721.0 W/m²18.3 km/hWesten27.4 km/h1016.9 hPa0.0 mm0.0 mm/hsonnig
31.08.2026 - 12.00Uhr20.5 °C12.5 °C60 %733.0 W/m²13.4 km/hWest-NW20.9 km/h1016.9 hPa0.0 mm0.0 mm/hsonnig
31.08.2026 - 12.05Uhr20.7 °C12.8 °C61 %731.0 W/m²12.5 km/hWest-NW19.4 km/h1016.9 hPa0.0 mm0.0 mm/hsonnig
31.08.2026 - 12.10Uhr20.7 °C12.6 °C60 %737.0 W/m²15.2 km/hWest-NW22.7 km/h1016.9 hPa0.0 mm0.0 mm/hsonnig
31.08.2026 - 12.15Uhr20.8 °C12.6 °C59 %751.0 W/m²12.5 km/hWesten19.4 km/h1016.9 hPa0.0 mm0.0 mm/hsonnig
31.08.2026 - 12.20Uhr20.8 °C12.7 °C60 %766.0 W/m²14.6 km/hNordwesten24.1 km/h1016.8 hPa0.0 mm0.0 mm/hsonnig
31.08.2026 - 12.25Uhr21.1 °C12.6 °C58 %765.0 W/m²14.9 km/hWest-NW22.7 km/h1016.9 hPa0.0 mm0.0 mm/hsonnig
31.08.2026 - 12.30Uhr21.1 °C12.2 °C57 %795.0 W/m²15.3 km/hWest-NW24.1 km/h1016.8 hPa0.0 mm0.0 mm/hsonnig
31.08.2026 - 12.35Uhr21.2 °C12.5 °C58 %786.0 W/m²12.8 km/hWesten20.9 km/h1016.8 hPa0.0 mm0.0 mm/hsonnig
31.08.2026 - 12.40Uhr21.4 °C12.6 °C58 %798.0 W/m²11.3 km/hWesten19.4 km/h1016.8 hPa0.0 mm0.0 mm/hsonnig
31.08.2026 - 12.45Uhr21.5 °C12.8 °C58 %798.0 W/m²12.2 km/hWest-NW19.4 km/h1016.8 hPa0.0 mm0.0 mm/hsonnig
31.08.2026 - 12.50Uhr21.4 °C12.5 °C57 %773.0 W/m²15.8 km/hWesten24.1 km/h1016.8 hPa0.0 mm0.0 mm/hsonnig
31.08.2026 - 12.55Uhr21.4 °C12.4 °C56 %773.0 W/m²13.3 km/hWest-NW19.4 km/h1016.9 hPa0.0 mm0.0 mm/hsonnig
31.08.2026 - 13.00Uhr21.8 °C12.9 °C57 %777.0 W/m²14.0 km/hWest-NW22.7 km/h1016.9 hPa0.0 mm0.0 mm/hsonnig
31.08.2026 - 13.05Uhr21.8 °C12.4 °C55 %777.0 W/m²10.9 km/hWesten17.6 km/h1016.8 hPa0.0 mm0.0 mm/hsonnig
31.08.2026 - 13.10Uhr21.9 °C12.5 °C55 %779.0 W/m²11.0 km/hWest-SW17.6 km/h1016.8 hPa0.0 mm0.0 mm/hsonnig
31.08.2026 - 13.15Uhr21.9 °C12.5 °C55 %791.0 W/m²12.9 km/hWesten20.9 km/h1016.7 hPa0.0 mm0.0 mm/hsonnig
31.08.2026 - 13.20Uhr22.2 °C12.6 °C55 %805.0 W/m²14.0 km/hWesten20.9 km/h1016.8 hPa0.0 mm0.0 mm/hsonnig